Hovedside
METAR-TAF:

METAR-TAF

Lufthavner :

Örnsköldsvik lufthavn

Örnsköldsvik, Sverige

breddegrad: 63-24N, lengdegrad: 018-58E, høyde over havet: 103 m

Gjeldene værobservasjon

Denne rapporten ble laget for 37 minutter siden, klokken 13:50 UTC
Vind 9 kt fra Øst, skiftende mellom Øst-nordøst og Sørøst
Temperatur 30°C
Luftfuktighet 31%
Trykk 1015 hPa
Sikt 10 km eller mer

METAR: ESNO 181350Z AUTO 09009KT 060V130 9999 NCD 30/11 Q1015

Tid: 16:27 (14:27 UTC)

Varsel

Denne rapporten ble laget for 6 timer og 57 minutter siden, klokken 07:30 UTC
Varsel gyldig fra 18. klokken 08 UTC til 18. klokken 10 UTC
Vind 9 kt fra Øst
Sikt 10 km eller mer
ingen skyer under 1500 m og ingen bygeskyer

TAF: ESNO 180730Z 1808/1810 10009KT CAVOK

Værobservasjoner og værvarsel for over 4000 flyplasser (METAR- og TAF-rapporter).

Tilgjengelige stasjoner er representert av de røde og gule prikkene på kartet.

Hold musepekeren over prikken for å se navnet på stasjonen.

Klikk så for å se værobservasjoner og -varsler.

For å forandre kartet kan du klikke på den grønne knappen med svart kryss for å zoome inn, på den grønne knappen med strek for å zoome ut, eller på de grønne pilene for å se tilstøtende kart.


METAR-TAF: